createdAt,value
2019-05-19T00:00:55.766Z,102.37
2019-05-19T00:03:35.594Z,90.70
2019-05-19T00:06:10.349Z,24.30
2019-05-19T00:12:08.175Z,41.40
2019-05-19T00:19:25.533Z,42.80
2019-05-19T00:22:12.840Z,53.33
2019-05-19T00:24:46.303Z,56.27
2019-05-19T00:27:52.590Z,55.00
2019-05-19T00:34:42.947Z,25.27
2019-05-19T00:37:43.491Z,26.27
2019-05-19T00:40:19.522Z,19.30
2019-05-19T00:43:20.149Z,48.83
2019-05-19T00:45:52.304Z,25.60
2019-05-19T00:48:37.597Z,23.07
2019-05-19T00:51:22.577Z,23.70
2019-05-19T00:53:57.302Z,29.33
2019-05-19T00:56:31.752Z,31.50
2019-05-19T00:59:20.782Z,28.43
2019-05-19T01:02:07.803Z,35.23
2019-05-19T01:04:47.387Z,29.37
2019-05-19T01:07:21.226Z,23.80
2019-05-19T01:10:06.721Z,23.90
2019-05-19T01:12:38.596Z,31.47
2019-05-19T01:18:40.316Z,24.83
2019-05-19T01:21:30.783Z,25.63
2019-05-19T01:24:24.784Z,28.13
2019-05-19T01:34:01.824Z,23.60
2019-05-19T01:39:51.455Z,26.30
2019-05-19T01:47:03.077Z,24.03
2019-05-19T01:49:46.743Z,35.03
2019-05-19T01:52:39.310Z,24.43
2019-05-19T01:55:22.656Z,29.10
2019-05-19T01:57:58.744Z,24.97
2019-05-19T02:00:50.991Z,27.57
2019-05-19T02:03:32.987Z,27.97
2019-05-19T02:06:21.378Z,26.60
2019-05-19T02:08:56.282Z,29.60
2019-05-19T02:11:35.619Z,39.60
2019-05-19T02:14:39.994Z,34.60
2019-05-19T02:17:18.650Z,50.13
2019-05-19T02:19:51.709Z,45.03
2019-05-19T02:22:23.437Z,51.97
2019-05-19T02:25:33.807Z,35.20
2019-05-19T02:28:09.877Z,30.83
2019-05-19T02:30:52.224Z,32.40
2019-05-19T02:33:48.620Z,35.50
2019-05-19T02:36:19.385Z,54.73
2019-05-19T02:38:51.131Z,39.00
2019-05-19T02:41:53.491Z,30.90
2019-05-19T02:44:40.718Z,29.17
2019-05-19T02:47:44.483Z,30.03
2019-05-19T02:50:18.474Z,38.80
2019-05-19T02:53:00.211Z,36.93
2019-05-19T02:55:33.472Z,35.43
2019-05-19T02:58:07.556Z,41.90
2019-05-19T03:00:54.085Z,37.53
2019-05-19T03:03:34.018Z,35.27
2019-05-19T03:06:06.066Z,36.57
2019-05-19T03:08:43.534Z,33.70
2019-05-19T03:11:17.272Z,36.80
2019-05-19T03:13:48.042Z,38.03
2019-05-19T03:16:19.146Z,39.27
2019-05-19T03:18:52.657Z,43.70
2019-05-19T03:21:23.556Z,45.47
2019-05-19T03:23:54.076Z,56.57
2019-05-19T03:26:25.289Z,38.50
2019-05-19T03:29:00.318Z,40.57
2019-05-19T03:31:49.298Z,42.27
2019-05-19T03:34:25.783Z,43.00
2019-05-19T03:37:10.642Z,43.40
2019-05-19T03:39:48.221Z,43.70
2019-05-19T03:42:23.342Z,43.03
2019-05-19T03:45:01.170Z,61.83
2019-05-19T03:47:32.913Z,40.60
2019-05-19T03:50:04.981Z,39.93
2019-05-19T03:52:52.364Z,40.43
2019-05-19T03:55:30.800Z,41.83
2019-05-19T03:58:09.561Z,41.60
2019-05-19T04:00:41.847Z,40.27
2019-05-19T04:03:21.238Z,39.13
2019-05-19T04:06:01.557Z,40.03
2019-05-19T04:08:35.713Z,40.83
2019-05-19T04:11:09.775Z,40.83
2019-05-19T04:13:41.596Z,41.67
2019-05-19T04:16:17.494Z,40.73
2019-05-19T04:18:50.803Z,42.83
2019-05-19T04:21:23.372Z,43.43
2019-05-19T04:23:55.868Z,38.83
2019-05-19T04:26:29.902Z,38.63
2019-05-19T04:29:02.906Z,38.90
2019-05-19T04:31:34.797Z,38.50
2019-05-19T04:34:06.557Z,35.30
2019-05-19T04:36:37.253Z,40.20
2019-05-19T04:39:09.047Z,37.83
2019-05-19T04:41:40.278Z,39.77
2019-05-19T04:44:11.289Z,38.73
2019-05-19T04:46:44.629Z,41.30
2019-05-19T04:49:15.855Z,40.60
2019-05-19T04:51:46.960Z,41.10
2019-05-19T04:54:17.454Z,40.70
2019-05-19T04:56:47.851Z,41.17
2019-05-19T04:59:18.353Z,43.27
2019-05-19T05:01:48.576Z,41.03
2019-05-19T05:04:18.860Z,39.27
2019-05-19T05:06:59.016Z,54.70
2019-05-19T05:09:36.430Z,42.10
2019-05-19T05:12:07.025Z,43.33
2019-05-19T05:14:38.108Z,44.73
2019-05-19T05:17:08.474Z,43.20
2019-05-19T05:19:41.892Z,41.87
2019-05-19T05:22:21.750Z,42.30
2019-05-19T05:24:44.485Z,40.23
2019-05-19T05:27:15.316Z,40.93
2019-05-19T05:29:47.639Z,42.27
2019-05-19T05:32:19.482Z,42.20
2019-05-19T05:34:50.396Z,42.40
2019-05-19T05:37:21.330Z,43.60
2019-05-19T05:39:52.066Z,43.33
2019-05-19T05:42:24.847Z,43.70
2019-05-19T05:44:55.429Z,45.00
2019-05-19T05:47:25.744Z,44.77
2019-05-19T05:50:00.699Z,45.10
2019-05-19T05:52:38.705Z,44.20
2019-05-19T05:55:06.394Z,44.03
2019-05-19T05:57:38.392Z,42.83
2019-05-19T06:00:10.874Z,44.00
2019-05-19T06:02:42.206Z,42.67
2019-05-19T06:05:14.500Z,45.03
2019-05-19T06:07:44.780Z,44.57
2019-05-19T06:10:17.237Z,46.33
2019-05-19T06:12:48.913Z,47.77
2019-05-19T06:15:19.239Z,44.23
2019-05-19T06:17:50.797Z,41.50
2019-05-19T06:20:21.664Z,45.40
2019-05-19T06:23:12.084Z,44.10
2019-05-19T06:25:42.968Z,45.83
2019-05-19T06:28:14.443Z,47.33
2019-05-19T06:30:45.358Z,43.37
2019-05-19T06:33:16.465Z,42.53
2019-05-19T06:35:46.921Z,45.97
2019-05-19T06:38:19.983Z,48.60
2019-05-19T06:40:52.606Z,46.67
2019-05-19T06:43:23.224Z,49.90
2019-05-19T06:46:09.169Z,46.87
2019-05-19T06:48:27.464Z,43.60
2019-05-19T06:51:04.539Z,49.40
2019-05-19T06:53:37.235Z,43.07
2019-05-19T06:56:07.984Z,45.30
2019-05-19T06:58:38.535Z,44.10
2019-05-19T07:01:13.433Z,44.37
2019-05-19T07:03:44.340Z,42.33
2019-05-19T07:06:15.177Z,45.87
2019-05-19T07:08:45.770Z,43.03
2019-05-19T07:11:25.664Z,46.30
2019-05-19T07:13:58.353Z,42.10
2019-05-19T07:16:31.923Z,45.23
2019-05-19T07:19:18.187Z,44.60
2019-05-19T07:21:56.059Z,43.27
2019-05-19T07:24:30.438Z,43.63
2019-05-19T07:27:00.919Z,41.57
2019-05-19T07:29:34.441Z,44.43
2019-05-19T07:32:09.011Z,43.17
2019-05-19T07:34:42.244Z,45.00
2019-05-19T07:37:16.385Z,43.27
2019-05-19T07:39:53.519Z,43.07
2019-05-19T07:42:25.849Z,44.90
2019-05-19T07:45:02.806Z,47.10
2019-05-19T07:47:49.313Z,46.10
2019-05-19T07:50:25.372Z,44.10
2019-05-19T07:52:56.954Z,49.10
2019-05-19T07:55:38.788Z,45.20
2019-05-19T07:58:10.378Z,41.90
2019-05-19T08:00:44.796Z,41.67
2019-05-19T08:03:23.807Z,42.93
2019-05-19T08:05:57.701Z,40.00
2019-05-19T08:12:23.462Z,44.63
2019-05-19T08:15:00.365Z,44.00
2019-05-19T08:17:30.257Z,43.63
2019-05-19T08:20:13.992Z,42.23
2019-05-19T08:22:44.370Z,43.13
2019-05-19T08:25:21.359Z,41.00
2019-05-19T08:27:53.914Z,41.50
2019-05-19T08:30:29.223Z,40.30
2019-05-19T08:33:01.918Z,42.27
2019-05-19T08:35:32.468Z,43.27
2019-05-19T08:38:02.471Z,43.50
2019-05-19T08:40:32.400Z,42.93
2019-05-19T08:43:02.898Z,37.27
2019-05-19T08:45:37.245Z,36.63
2019-05-19T08:48:07.074Z,36.37
2019-05-19T08:50:37.248Z,37.07
2019-05-19T08:53:07.012Z,35.30
2019-05-19T08:55:37.279Z,37.37
2019-05-19T08:58:07.632Z,36.10
2019-05-19T09:00:38.781Z,35.73
2019-05-19T09:03:11.007Z,32.80
2019-05-19T09:05:43.263Z,34.10
2019-05-19T09:08:13.657Z,32.60
2019-05-19T09:10:44.141Z,36.40
2019-05-19T09:13:17.409Z,29.80
2019-05-19T09:15:47.574Z,26.70
2019-05-19T09:18:22.242Z,29.43
2019-05-19T09:20:52.932Z,29.00
2019-05-19T09:23:30.723Z,28.63
2019-05-19T09:26:02.190Z,24.90
2019-05-19T09:28:33.285Z,30.00
2019-05-19T09:31:04.844Z,29.97
2019-05-19T09:33:35.563Z,27.50
2019-05-19T09:36:05.870Z,26.57
2019-05-19T09:38:36.114Z,26.70
2019-05-19T09:41:08.867Z,35.50
2019-05-19T09:43:39.188Z,24.70
2019-05-19T09:46:13.784Z,25.73
2019-05-19T09:48:42.525Z,28.87
2019-05-19T09:51:28.848Z,28.90
2019-05-19T09:54:03.064Z,26.80
2019-05-19T09:56:32.958Z,28.07
2019-05-19T09:59:03.291Z,30.00
2019-05-19T10:01:35.801Z,28.87
2019-05-19T10:04:07.173Z,30.20
2019-05-19T10:06:41.548Z,29.43
2019-05-19T10:09:56.160Z,27.77
2019-05-19T10:12:26.750Z,29.87
2019-05-19T10:15:02.742Z,27.20
2019-05-19T10:17:38.242Z,27.27
2019-05-19T10:23:12.515Z,28.20
2019-05-19T10:25:51.503Z,28.60
2019-05-19T10:28:27.683Z,27.27
2019-05-19T10:30:58.565Z,29.47
2019-05-19T10:33:28.578Z,27.87
2019-05-19T10:35:59.334Z,49.13
2019-05-19T10:38:31.944Z,27.87
2019-05-19T10:41:04.775Z,26.60
2019-05-19T10:43:34.713Z,28.43
2019-05-19T10:46:08.459Z,26.23
2019-05-19T10:48:41.533Z,27.67
2019-05-19T10:51:17.669Z,25.80
2019-05-19T10:53:53.321Z,28.70
2019-05-19T10:56:31.296Z,27.80
2019-05-19T10:59:02.735Z,27.57
2019-05-19T11:02:26.864Z,25.23
2019-05-19T11:05:02.920Z,25.73
2019-05-19T11:07:36.569Z,24.83
2019-05-19T11:10:07.304Z,23.43
2019-05-19T11:12:51.189Z,22.30
2019-05-19T11:15:22.043Z,26.63
2019-05-19T11:18:02.357Z,28.23
2019-05-19T11:20:39.890Z,24.60
2019-05-19T11:23:09.859Z,28.07
2019-05-19T11:25:51.623Z,26.03
2019-05-19T11:28:19.364Z,24.60
2019-05-19T11:30:53.883Z,27.07
2019-05-19T11:33:23.914Z,24.60
2019-05-19T11:36:04.382Z,24.20
2019-05-19T11:38:40.289Z,25.93
2019-05-19T11:41:18.132Z,24.53
2019-05-19T11:43:59.564Z,28.70
2019-05-19T11:46:35.102Z,24.60
2019-05-19T11:49:13.407Z,23.40
2019-05-19T11:51:46.023Z,24.27
2019-05-19T11:54:24.746Z,26.97
2019-05-19T11:57:23.913Z,50.27
2019-05-19T11:59:56.791Z,25.23
2019-05-19T12:02:27.714Z,22.77
2019-05-19T12:05:04.745Z,25.30
2019-05-19T12:07:39.849Z,25.93
2019-05-19T12:10:30.518Z,24.30
2019-05-19T12:13:36.133Z,27.20
2019-05-19T12:16:39.985Z,26.17
2019-05-19T12:19:09.861Z,23.77
2019-05-19T12:21:40.072Z,25.53
2019-05-19T12:24:12.631Z,25.83
2019-05-19T12:26:44.260Z,28.17
2019-05-19T12:29:26.502Z,36.10
2019-05-19T12:32:10.616Z,27.27
2019-05-19T12:34:41.475Z,25.37
2019-05-19T12:37:11.381Z,27.97
2019-05-19T12:39:44.740Z,29.30
2019-05-19T12:42:30.479Z,36.60
2019-05-19T12:45:14.898Z,32.33
2019-05-19T12:47:48.356Z,26.10
2019-05-19T12:50:32.894Z,25.57
2019-05-19T12:53:07.885Z,24.30
2019-05-19T12:55:38.243Z,46.63
2019-05-19T12:58:08.452Z,30.27
2019-05-19T13:00:45.246Z,26.43
2019-05-19T13:03:16.312Z,38.60
2019-05-19T13:05:47.897Z,21.70
2019-05-19T13:08:19.457Z,19.87
2019-05-19T13:10:49.477Z,22.20
2019-05-19T13:13:20.133Z,21.93
2019-05-19T13:16:02.753Z,22.80
2019-05-19T13:18:41.934Z,32.63
2019-05-19T13:21:11.495Z,22.60
2019-05-19T13:23:45.403Z,17.60
2019-05-19T13:26:22.259Z,18.97
2019-05-19T13:28:56.872Z,38.83
2019-05-19T13:31:29.815Z,20.90
2019-05-19T13:34:09.647Z,19.90
2019-05-19T13:36:50.330Z,2.80
2019-05-19T13:39:32.760Z,3.30
2019-05-19T13:42:08.512Z,3.03
2019-05-19T13:44:45.711Z,2.30
2019-05-19T13:47:19.420Z,2.80
2019-05-19T13:50:21.490Z,2.57
2019-05-19T13:52:59.724Z,2.43
2019-05-19T20:19:59.031Z,51.90
2019-05-19T20:23:04.657Z,20.60
2019-05-19T20:25:56.321Z,20.10
2019-05-19T20:28:30.279Z,24.60
2019-05-19T20:31:18.865Z,23.67
2019-05-19T20:33:59.303Z,21.40
2019-05-19T20:36:42.964Z,51.67
2019-05-19T20:39:28.952Z,27.07
2019-05-19T20:43:15.094Z,18.80
2019-05-19T20:45:43.599Z,22.30
2019-05-19T20:48:27.693Z,31.97
2019-05-19T20:51:03.315Z,25.40
2019-05-19T20:53:53.520Z,80.73
2019-05-19T20:56:27.454Z,31.30
2019-05-19T20:59:17.549Z,41.67
2019-05-19T21:02:18.906Z,26.83
2019-05-19T21:05:05.687Z,56.27
2019-05-19T21:07:57.257Z,30.63
2019-05-19T21:10:34.012Z,41.17
2019-05-19T21:13:16.603Z,25.83
2019-05-19T21:15:54.699Z,28.87
2019-05-19T21:18:55.921Z,23.67
2019-05-19T21:21:31.449Z,24.17
2019-05-19T21:24:05.476Z,24.87
2019-05-19T21:26:41.798Z,26.67
2019-05-19T21:29:18.022Z,27.17
2019-05-19T21:31:49.775Z,27.30
2019-05-19T21:34:28.706Z,27.07
2019-05-19T21:37:44.035Z,27.17
2019-05-19T21:40:14.890Z,31.20
2019-05-19T21:42:47.413Z,28.77
2019-05-19T21:45:20.540Z,28.73
2019-05-19T21:47:52.076Z,29.40
2019-05-19T21:50:22.306Z,27.47
2019-05-19T21:52:53.383Z,28.27
2019-05-19T21:55:29.191Z,29.57
2019-05-19T21:58:04.119Z,34.97
2019-05-19T22:00:36.405Z,35.00
2019-05-19T22:03:06.364Z,33.70
2019-05-19T22:05:52.533Z,30.80
2019-05-19T22:08:15.337Z,31.80
2019-05-19T22:10:53.345Z,37.70
2019-05-19T22:13:34.204Z,37.70
2019-05-19T22:16:12.768Z,36.10
2019-05-19T22:18:41.229Z,34.20
2019-05-19T22:21:12.960Z,35.57
2019-05-19T22:23:52.092Z,38.43
2019-05-19T22:26:27.080Z,45.23
2019-05-19T22:29:00.898Z,36.20
2019-05-19T22:31:37.024Z,35.67
2019-05-19T22:34:07.273Z,34.10
2019-05-19T22:36:38.175Z,52.60
2019-05-19T22:39:12.348Z,43.80
2019-05-19T22:41:47.086Z,37.83
2019-05-19T22:44:20.301Z,42.00
2019-05-19T22:46:53.516Z,52.03
2019-05-19T22:49:33.187Z,49.53
2019-05-19T22:52:10.758Z,44.70
2019-05-19T22:54:50.556Z,42.87
2019-05-19T22:57:24.142Z,42.63
2019-05-19T22:59:55.088Z,40.73
2019-05-19T23:02:28.196Z,40.73
2019-05-19T23:05:01.942Z,36.80
2019-05-19T23:07:40.056Z,40.07
2019-05-19T23:10:57.129Z,45.13
2019-05-19T23:13:34.370Z,44.83
2019-05-19T23:16:08.014Z,45.03
2019-05-19T23:18:39.356Z,45.03
2019-05-19T23:21:13.732Z,45.70
2019-05-19T23:23:46.204Z,46.40
2019-05-19T23:26:21.546Z,47.30
2019-05-19T23:28:57.312Z,48.47
2019-05-19T23:31:27.951Z,50.80
2019-05-19T23:33:57.938Z,51.37
2019-05-19T23:36:29.538Z,51.27
2019-05-19T23:39:07.234Z,54.93
2019-05-19T23:41:40.237Z,54.17
2019-05-19T23:44:10.164Z,56.13
2019-05-19T23:46:47.094Z,57.40
2019-05-19T23:49:17.746Z,67.50
2019-05-19T23:51:48.937Z,60.13
2019-05-19T23:54:19.000Z,57.60
2019-05-19T23:56:48.808Z,57.97
2019-05-19T23:59:19.466Z,65.03
